sensor_id;sensor_type;location;lat;lon;timestamp;P1;durP1;ratioP1;P2;durP2;ratioP2
13799;SDS011;6971;50.028;9.258;2022-07-29T00:03:08;8.37;;;3.60;;
13799;SDS011;6971;50.028;9.258;2022-07-29T00:08:09;6.63;;;3.70;;
13799;SDS011;6971;50.028;9.258;2022-07-29T00:13:10;5.10;;;3.27;;
13799;SDS011;6971;50.028;9.258;2022-07-29T00:18:11;5.77;;;3.10;;
13799;SDS011;6971;50.028;9.258;2022-07-29T00:23:11;4.17;;;2.97;;
13799;SDS011;6971;50.028;9.258;2022-07-29T00:28:12;8.73;;;3.63;;
13799;SDS011;6971;50.028;9.258;2022-07-29T00:33:14;6.00;;;3.07;;
13799;SDS011;6971;50.028;9.258;2022-07-29T00:38:17;6.80;;;3.70;;
13799;SDS011;6971;50.028;9.258;2022-07-29T00:43:20;6.30;;;3.27;;
13799;SDS011;6971;50.028;9.258;2022-07-29T00:48:21;6.37;;;3.50;;
13799;SDS011;6971;50.028;9.258;2022-07-29T00:53:22;4.23;;;3.00;;
13799;SDS011;6971;50.028;9.258;2022-07-29T00:58:24;8.43;;;3.40;;
13799;SDS011;6971;50.028;9.258;2022-07-29T01:03:26;4.87;;;2.83;;
13799;SDS011;6971;50.028;9.258;2022-07-29T01:08:27;8.00;;;3.23;;
13799;SDS011;6971;50.028;9.258;2022-07-29T01:13:29;10.63;;;3.70;;
13799;SDS011;6971;50.028;9.258;2022-07-29T01:18:37;5.93;;;3.13;;
13799;SDS011;6971;50.028;9.258;2022-07-29T01:29:12;5.53;;;3.37;;
13799;SDS011;6971;50.028;9.258;2022-07-29T01:34:50;5.77;;;3.40;;
13799;SDS011;6971;50.028;9.258;2022-07-29T01:39:56;6.77;;;3.27;;
13799;SDS011;6971;50.028;9.258;2022-07-29T01:45:00;4.93;;;3.40;;
13799;SDS011;6971;50.028;9.258;2022-07-29T01:50:22;6.97;;;3.53;;
13799;SDS011;6971;50.028;9.258;2022-07-29T01:55:32;4.73;;;3.37;;
13799;SDS011;6971;50.028;9.258;2022-07-29T02:00:37;5.10;;;3.20;;
13799;SDS011;6971;50.028;9.258;2022-07-29T02:05:41;5.83;;;3.50;;
13799;SDS011;6971;50.028;9.258;2022-07-29T02:10:44;4.33;;;3.10;;
13799;SDS011;6971;50.028;9.258;2022-07-29T02:15:48;5.87;;;3.30;;
13799;SDS011;6971;50.028;9.258;2022-07-29T02:20:52;5.53;;;3.13;;
13799;SDS011;6971;50.028;9.258;2022-07-29T02:25:56;5.53;;;3.17;;
13799;SDS011;6971;50.028;9.258;2022-07-29T02:31:01;4.73;;;3.30;;
13799;SDS011;6971;50.028;9.258;2022-07-29T02:36:04;3.77;;;2.90;;
13799;SDS011;6971;50.028;9.258;2022-07-29T02:41:07;7.10;;;3.27;;
13799;SDS011;6971;50.028;9.258;2022-07-29T02:46:13;6.07;;;3.43;;
13799;SDS011;6971;50.028;9.258;2022-07-29T02:51:32;5.93;;;3.27;;
13799;SDS011;6971;50.028;9.258;2022-07-29T02:56:40;7.10;;;3.37;;
13799;SDS011;6971;50.028;9.258;2022-07-29T03:01:43;5.93;;;3.20;;
13799;SDS011;6971;50.028;9.258;2022-07-29T03:06:45;5.13;;;3.47;;
13799;SDS011;6971;50.028;9.258;2022-07-29T03:11:47;5.90;;;3.77;;
13799;SDS011;6971;50.028;9.258;2022-07-29T03:16:49;7.53;;;3.40;;
13799;SDS011;6971;50.028;9.258;2022-07-29T03:21:51;5.10;;;3.20;;
13799;SDS011;6971;50.028;9.258;2022-07-29T03:26:54;4.07;;;3.53;;
13799;SDS011;6971;50.028;9.258;2022-07-29T03:31:57;9.07;;;3.77;;
13799;SDS011;6971;50.028;9.258;2022-07-29T03:36:58;10.07;;;3.70;;
13799;SDS011;6971;50.028;9.258;2022-07-29T03:42:00;5.47;;;4.07;;
13799;SDS011;6971;50.028;9.258;2022-07-29T03:47:01;6.30;;;3.67;;
13799;SDS011;6971;50.028;9.258;2022-07-29T03:52:05;5.17;;;3.50;;
13799;SDS011;6971;50.028;9.258;2022-07-29T03:57:07;6.17;;;3.47;;
13799;SDS011;6971;50.028;9.258;2022-07-29T04:02:11;4.03;;;3.40;;
13799;SDS011;6971;50.028;9.258;2022-07-29T04:07:13;5.70;;;3.40;;
13799;SDS011;6971;50.028;9.258;2022-07-29T04:12:15;5.33;;;3.40;;
13799;SDS011;6971;50.028;9.258;2022-07-29T04:17:16;7.13;;;3.20;;
13799;SDS011;6971;50.028;9.258;2022-07-29T04:22:18;4.47;;;3.93;;
13799;SDS011;6971;50.028;9.258;2022-07-29T04:27:19;6.23;;;3.70;;
13799;SDS011;6971;50.028;9.258;2022-07-29T04:32:20;7.83;;;3.83;;
13799;SDS011;6971;50.028;9.258;2022-07-29T04:37:21;3.93;;;3.53;;
13799;SDS011;6971;50.028;9.258;2022-07-29T04:42:22;7.30;;;3.93;;
13799;SDS011;6971;50.028;9.258;2022-07-29T04:47:23;5.03;;;3.37;;
13799;SDS011;6971;50.028;9.258;2022-07-29T04:52:25;6.00;;;3.73;;
13799;SDS011;6971;50.028;9.258;2022-07-29T04:57:26;5.20;;;3.23;;
13799;SDS011;6971;50.028;9.258;2022-07-29T05:02:27;4.27;;;3.50;;
13799;SDS011;6971;50.028;9.258;2022-07-29T05:07:28;3.60;;;3.30;;
13799;SDS011;6971;50.028;9.258;2022-07-29T05:12:29;6.43;;;3.80;;
13799;SDS011;6971;50.028;9.258;2022-07-29T05:17:30;4.10;;;3.30;;
13799;SDS011;6971;50.028;9.258;2022-07-29T05:22:31;4.80;;;3.20;;
13799;SDS011;6971;50.028;9.258;2022-07-29T05:27:32;3.33;;;3.03;;
13799;SDS011;6971;50.028;9.258;2022-07-29T05:32:33;5.43;;;2.90;;
13799;SDS011;6971;50.028;9.258;2022-07-29T05:37:34;7.03;;;3.37;;
13799;SDS011;6971;50.028;9.258;2022-07-29T05:42:35;5.80;;;3.00;;
13799;SDS011;6971;50.028;9.258;2022-07-29T05:47:36;3.87;;;3.53;;
13799;SDS011;6971;50.028;9.258;2022-07-29T05:52:38;4.43;;;3.13;;
13799;SDS011;6971;50.028;9.258;2022-07-29T05:57:39;5.70;;;3.17;;
13799;SDS011;6971;50.028;9.258;2022-07-29T06:02:40;6.53;;;3.17;;
13799;SDS011;6971;50.028;9.258;2022-07-29T06:07:41;5.17;;;2.90;;
13799;SDS011;6971;50.028;9.258;2022-07-29T06:12:41;4.67;;;2.70;;
13799;SDS011;6971;50.028;9.258;2022-07-29T06:17:42;5.57;;;3.10;;
13799;SDS011;6971;50.028;9.258;2022-07-29T06:22:44;4.17;;;2.90;;
13799;SDS011;6971;50.028;9.258;2022-07-29T06:27:45;6.60;;;3.10;;
13799;SDS011;6971;50.028;9.258;2022-07-29T06:32:47;7.13;;;2.90;;
13799;SDS011;6971;50.028;9.258;2022-07-29T06:37:48;10.10;;;3.30;;
13799;SDS011;6971;50.028;9.258;2022-07-29T06:42:49;8.70;;;2.80;;
13799;SDS011;6971;50.028;9.258;2022-07-29T06:47:50;5.50;;;2.70;;
13799;SDS011;6971;50.028;9.258;2022-07-29T06:52:52;4.43;;;2.70;;
13799;SDS011;6971;50.028;9.258;2022-07-29T06:57:53;7.13;;;2.60;;
13799;SDS011;6971;50.028;9.258;2022-07-29T07:02:54;5.87;;;3.97;;
13799;SDS011;6971;50.028;9.258;2022-07-29T07:07:55;8.20;;;3.17;;
13799;SDS011;6971;50.028;9.258;2022-07-29T07:13:15;4.07;;;2.87;;
13799;SDS011;6971;50.028;9.258;2022-07-29T07:18:18;9.20;;;3.27;;
13799;SDS011;6971;50.028;9.258;2022-07-29T07:23:20;4.23;;;2.80;;
13799;SDS011;6971;50.028;9.258;2022-07-29T07:28:20;8.17;;;2.90;;
13799;SDS011;6971;50.028;9.258;2022-07-29T07:33:21;6.07;;;2.50;;
13799;SDS011;6971;50.028;9.258;2022-07-29T07:38:22;5.40;;;2.80;;
13799;SDS011;6971;50.028;9.258;2022-07-29T07:43:23;3.97;;;2.37;;
13799;SDS011;6971;50.028;9.258;2022-07-29T07:48:24;4.80;;;2.67;;
13799;SDS011;6971;50.028;9.258;2022-07-29T07:53:25;5.50;;;2.43;;
13799;SDS011;6971;50.028;9.258;2022-07-29T07:58:26;3.47;;;2.50;;
13799;SDS011;6971;50.028;9.258;2022-07-29T08:03:27;6.90;;;3.20;;
13799;SDS011;6971;50.028;9.258;2022-07-29T08:08:28;3.53;;;2.70;;
13799;SDS011;6971;50.028;9.258;2022-07-29T08:13:29;6.40;;;2.90;;
13799;SDS011;6971;50.028;9.258;2022-07-29T08:18:31;5.27;;;3.10;;
13799;SDS011;6971;50.028;9.258;2022-07-29T08:23:32;6.23;;;2.83;;
13799;SDS011;6971;50.028;9.258;2022-07-29T08:28:40;8.27;;;2.90;;
13799;SDS011;6971;50.028;9.258;2022-07-29T08:33:59;3.73;;;2.70;;
13799;SDS011;6971;50.028;9.258;2022-07-29T08:39:01;4.10;;;2.70;;
13799;SDS011;6971;50.028;9.258;2022-07-29T08:44:03;6.50;;;2.90;;
13799;SDS011;6971;50.028;9.258;2022-07-29T08:49:04;4.23;;;2.70;;
13799;SDS011;6971;50.028;9.258;2022-07-29T08:54:06;6.00;;;3.00;;
13799;SDS011;6971;50.028;9.258;2022-07-29T08:59:09;4.90;;;2.60;;
13799;SDS011;6971;50.028;9.258;2022-07-29T09:04:11;7.27;;;2.93;;
13799;SDS011;6971;50.028;9.258;2022-07-29T09:09:13;4.27;;;2.70;;
13799;SDS011;6971;50.028;9.258;2022-07-29T09:14:15;3.50;;;2.47;;
13799;SDS011;6971;50.028;9.258;2022-07-29T09:19:19;5.17;;;2.70;;
13799;SDS011;6971;50.028;9.258;2022-07-29T09:24:35;3.87;;;2.60;;
13799;SDS011;6971;50.028;9.258;2022-07-29T09:29:39;4.33;;;2.83;;
13799;SDS011;6971;50.028;9.258;2022-07-29T09:34:40;5.73;;;3.90;;
13799;SDS011;6971;50.028;9.258;2022-07-29T09:39:41;5.77;;;2.60;;
13799;SDS011;6971;50.028;9.258;2022-07-29T09:44:47;3.50;;;3.00;;
13799;SDS011;6971;50.028;9.258;2022-07-29T09:49:57;5.20;;;3.00;;
13799;SDS011;6971;50.028;9.258;2022-07-29T09:55:06;5.37;;;3.90;;
13799;SDS011;6971;50.028;9.258;2022-07-29T10:00:08;5.13;;;3.33;;
13799;SDS011;6971;50.028;9.258;2022-07-29T10:05:20;4.47;;;3.40;;
13799;SDS011;6971;50.028;9.258;2022-07-29T10:10:27;7.67;;;4.53;;
13799;SDS011;6971;50.028;9.258;2022-07-29T10:15:30;6.40;;;4.13;;
13799;SDS011;6971;50.028;9.258;2022-07-29T10:20:33;16.70;;;12.90;;
13799;SDS011;6971;50.028;9.258;2022-07-29T10:25:35;7.70;;;4.83;;
13799;SDS011;6971;50.028;9.258;2022-07-29T10:30:36;4.13;;;3.40;;
13799;SDS011;6971;50.028;9.258;2022-07-29T10:35:45;4.83;;;3.47;;
13799;SDS011;6971;50.028;9.258;2022-07-29T10:41:11;7.20;;;3.30;;
13799;SDS011;6971;50.028;9.258;2022-07-29T10:46:28;5.07;;;3.13;;
13799;SDS011;6971;50.028;9.258;2022-07-29T10:56:51;5.60;;;3.70;;
13799;SDS011;6971;50.028;9.258;2022-07-29T11:01:53;4.10;;;3.20;;
13799;SDS011;6971;50.028;9.258;2022-07-29T11:12:02;3.80;;;3.40;;
13799;SDS011;6971;50.028;9.258;2022-07-29T11:17:13;6.27;;;3.40;;
13799;SDS011;6971;50.028;9.258;2022-07-29T11:22:33;3.83;;;3.17;;
13799;SDS011;6971;50.028;9.258;2022-07-29T11:27:36;4.20;;;3.40;;
13799;SDS011;6971;50.028;9.258;2022-07-29T11:32:42;4.83;;;3.30;;
13799;SDS011;6971;50.028;9.258;2022-07-29T11:38:22;5.00;;;3.10;;
13799;SDS011;6971;50.028;9.258;2022-07-29T11:48:51;6.57;;;3.30;;
13799;SDS011;6971;50.028;9.258;2022-07-29T11:53:53;4.10;;;3.07;;
13799;SDS011;6971;50.028;9.258;2022-07-29T11:59:04;5.70;;;3.07;;
13799;SDS011;6971;50.028;9.258;2022-07-29T12:04:06;4.40;;;3.30;;
13799;SDS011;6971;50.028;9.258;2022-07-29T12:09:10;6.87;;;3.27;;
13799;SDS011;6971;50.028;9.258;2022-07-29T12:14:27;7.93;;;3.67;;
13799;SDS011;6971;50.028;9.258;2022-07-29T12:19:28;5.10;;;3.63;;
13799;SDS011;6971;50.028;9.258;2022-07-29T12:24:44;7.40;;;3.63;;
13799;SDS011;6971;50.028;9.258;2022-07-29T12:30:02;5.07;;;3.60;;
13799;SDS011;6971;50.028;9.258;2022-07-29T12:35:07;5.90;;;3.67;;
13799;SDS011;6971;50.028;9.258;2022-07-29T12:40:11;5.83;;;3.40;;
13799;SDS011;6971;50.028;9.258;2022-07-29T12:45:13;4.83;;;3.70;;
13799;SDS011;6971;50.028;9.258;2022-07-29T12:50:17;5.00;;;3.70;;
13799;SDS011;6971;50.028;9.258;2022-07-29T13:00:57;4.10;;;3.30;;
13799;SDS011;6971;50.028;9.258;2022-07-29T13:05:59;8.10;;;3.70;;
13799;SDS011;6971;50.028;9.258;2022-07-29T13:11:00;5.10;;;3.43;;
13799;SDS011;6971;50.028;9.258;2022-07-29T13:16:05;4.17;;;3.60;;
13799;SDS011;6971;50.028;9.258;2022-07-29T13:21:11;4.53;;;4.07;;
13799;SDS011;6971;50.028;9.258;2022-07-29T13:26:14;6.30;;;3.90;;
13799;SDS011;6971;50.028;9.258;2022-07-29T13:31:19;5.97;;;3.63;;
13799;SDS011;6971;50.028;9.258;2022-07-29T13:36:21;9.17;;;3.90;;
13799;SDS011;6971;50.028;9.258;2022-07-29T13:41:22;4.00;;;3.60;;
13799;SDS011;6971;50.028;9.258;2022-07-29T13:46:23;4.67;;;4.00;;
13799;SDS011;6971;50.028;9.258;2022-07-29T13:51:24;6.10;;;3.40;;
13799;SDS011;6971;50.028;9.258;2022-07-29T13:56:25;4.13;;;3.73;;
13799;SDS011;6971;50.028;9.258;2022-07-29T14:01:27;3.93;;;3.57;;
13799;SDS011;6971;50.028;9.258;2022-07-29T14:06:28;5.07;;;3.50;;
13799;SDS011;6971;50.028;9.258;2022-07-29T14:11:29;6.20;;;3.93;;
13799;SDS011;6971;50.028;9.258;2022-07-29T14:16:46;7.23;;;4.20;;
13799;SDS011;6971;50.028;9.258;2022-07-29T14:21:48;5.10;;;3.67;;
13799;SDS011;6971;50.028;9.258;2022-07-29T14:26:49;6.73;;;4.10;;
13799;SDS011;6971;50.028;9.258;2022-07-29T14:31:50;3.70;;;3.37;;
13799;SDS011;6971;50.028;9.258;2022-07-29T14:36:51;5.87;;;3.87;;
13799;SDS011;6971;50.028;9.258;2022-07-29T14:41:56;6.70;;;4.50;;
13799;SDS011;6971;50.028;9.258;2022-07-29T14:47:03;8.73;;;7.23;;
13799;SDS011;6971;50.028;9.258;2022-07-29T14:52:04;27.63;;;23.23;;
13799;SDS011;6971;50.028;9.258;2022-07-29T14:57:05;10.73;;;9.57;;
13799;SDS011;6971;50.028;9.258;2022-07-29T15:02:06;6.63;;;5.20;;
13799;SDS011;6971;50.028;9.258;2022-07-29T15:07:07;5.57;;;4.90;;
13799;SDS011;6971;50.028;9.258;2022-07-29T15:12:08;6.33;;;5.13;;
13799;SDS011;6971;50.028;9.258;2022-07-29T15:17:10;6.33;;;5.73;;
13799;SDS011;6971;50.028;9.258;2022-07-29T15:22:11;6.80;;;6.10;;
13799;SDS011;6971;50.028;9.258;2022-07-29T15:27:15;5.87;;;5.27;;
13799;SDS011;6971;50.028;9.258;2022-07-29T15:32:16;6.40;;;5.77;;
13799;SDS011;6971;50.028;9.258;2022-07-29T15:37:17;8.37;;;5.53;;
13799;SDS011;6971;50.028;9.258;2022-07-29T15:42:18;9.23;;;5.70;;
13799;SDS011;6971;50.028;9.258;2022-07-29T15:47:19;8.97;;;6.87;;
13799;SDS011;6971;50.028;9.258;2022-07-29T15:52:20;9.27;;;6.93;;
13799;SDS011;6971;50.028;9.258;2022-07-29T15:57:22;10.03;;;7.13;;
13799;SDS011;6971;50.028;9.258;2022-07-29T16:02:23;9.40;;;6.80;;
13799;SDS011;6971;50.028;9.258;2022-07-29T16:07:25;9.20;;;7.70;;
13799;SDS011;6971;50.028;9.258;2022-07-29T16:12:26;7.93;;;7.13;;
13799;SDS011;6971;50.028;9.258;2022-07-29T16:17:27;8.47;;;6.07;;
13799;SDS011;6971;50.028;9.258;2022-07-29T16:22:28;9.97;;;6.97;;
13799;SDS011;6971;50.028;9.258;2022-07-29T16:27:30;8.30;;;6.57;;
13799;SDS011;6971;50.028;9.258;2022-07-29T16:32:30;9.03;;;6.13;;
13799;SDS011;6971;50.028;9.258;2022-07-29T16:37:32;6.93;;;6.23;;
13799;SDS011;6971;50.028;9.258;2022-07-29T16:42:34;6.07;;;5.57;;
13799;SDS011;6971;50.028;9.258;2022-07-29T16:47:35;6.93;;;5.87;;
13799;SDS011;6971;50.028;9.258;2022-07-29T16:52:36;8.00;;;6.10;;
13799;SDS011;6971;50.028;9.258;2022-07-29T16:57:37;6.30;;;5.70;;
13799;SDS011;6971;50.028;9.258;2022-07-29T17:02:38;5.83;;;5.30;;
13799;SDS011;6971;50.028;9.258;2022-07-29T17:07:39;7.93;;;7.20;;
13799;SDS011;6971;50.028;9.258;2022-07-29T17:12:40;6.90;;;6.30;;
13799;SDS011;6971;50.028;9.258;2022-07-29T17:17:41;7.43;;;6.40;;
13799;SDS011;6971;50.028;9.258;2022-07-29T17:22:42;7.87;;;7.07;;
13799;SDS011;6971;50.028;9.258;2022-07-29T17:27:43;8.47;;;7.67;;
13799;SDS011;6971;50.028;9.258;2022-07-29T17:32:45;7.30;;;6.43;;
13799;SDS011;6971;50.028;9.258;2022-07-29T17:37:46;8.17;;;6.70;;
13799;SDS011;6971;50.028;9.258;2022-07-29T17:42:46;7.53;;;6.80;;
13799;SDS011;6971;50.028;9.258;2022-07-29T17:47:47;9.00;;;8.10;;
13799;SDS011;6971;50.028;9.258;2022-07-29T17:52:48;10.20;;;8.40;;
13799;SDS011;6971;50.028;9.258;2022-07-29T17:57:49;7.80;;;7.10;;
13799;SDS011;6971;50.028;9.258;2022-07-29T18:02:50;8.53;;;7.70;;
13799;SDS011;6971;50.028;9.258;2022-07-29T18:07:51;8.47;;;7.67;;
13799;SDS011;6971;50.028;9.258;2022-07-29T18:12:52;8.87;;;8.07;;
13799;SDS011;6971;50.028;9.258;2022-07-29T18:17:53;7.57;;;6.97;;
13799;SDS011;6971;50.028;9.258;2022-07-29T18:22:55;7.00;;;6.43;;
13799;SDS011;6971;50.028;9.258;2022-07-29T18:27:57;7.73;;;6.93;;
13799;SDS011;6971;50.028;9.258;2022-07-29T18:32:59;7.20;;;6.50;;
13799;SDS011;6971;50.028;9.258;2022-07-29T18:38:00;6.80;;;6.20;;
13799;SDS011;6971;50.028;9.258;2022-07-29T18:43:00;6.27;;;5.70;;
13799;SDS011;6971;50.028;9.258;2022-07-29T18:48:03;5.70;;;5.20;;
13799;SDS011;6971;50.028;9.258;2022-07-29T18:53:04;5.63;;;5.13;;
13799;SDS011;6971;50.028;9.258;2022-07-29T18:58:05;6.27;;;5.73;;
13799;SDS011;6971;50.028;9.258;2022-07-29T19:03:08;5.90;;;5.40;;
13799;SDS011;6971;50.028;9.258;2022-07-29T19:08:09;8.30;;;7.60;;
13799;SDS011;6971;50.028;9.258;2022-07-29T19:13:11;9.03;;;7.33;;
13799;SDS011;6971;50.028;9.258;2022-07-29T19:18:12;8.30;;;7.50;;
13799;SDS011;6971;50.028;9.258;2022-07-29T19:23:14;10.37;;;8.20;;
13799;SDS011;6971;50.028;9.258;2022-07-29T19:28:17;8.87;;;8.03;;
13799;SDS011;6971;50.028;9.258;2022-07-29T19:33:19;8.37;;;7.67;;
13799;SDS011;6971;50.028;9.258;2022-07-29T19:38:21;9.40;;;8.60;;
13799;SDS011;6971;50.028;9.258;2022-07-29T19:43:22;9.03;;;7.40;;
13799;SDS011;6971;50.028;9.258;2022-07-29T19:48:24;10.03;;;7.37;;
13799;SDS011;6971;50.028;9.258;2022-07-29T19:53:25;8.37;;;6.97;;
13799;SDS011;6971;50.028;9.258;2022-07-29T19:58:26;9.07;;;7.37;;
13799;SDS011;6971;50.028;9.258;2022-07-29T20:03:27;8.30;;;7.50;;
13799;SDS011;6971;50.028;9.258;2022-07-29T20:08:29;8.93;;;8.03;;
13799;SDS011;6971;50.028;9.258;2022-07-29T20:13:31;8.60;;;7.80;;
13799;SDS011;6971;50.028;9.258;2022-07-29T20:18:40;8.67;;;7.87;;
13799;SDS011;6971;50.028;9.258;2022-07-29T20:23:42;8.57;;;7.87;;
13799;SDS011;6971;50.028;9.258;2022-07-29T20:28:43;10.10;;;7.70;;
13799;SDS011;6971;50.028;9.258;2022-07-29T20:33:45;9.37;;;8.57;;
13799;SDS011;6971;50.028;9.258;2022-07-29T20:38:46;9.20;;;8.30;;
13799;SDS011;6971;50.028;9.258;2022-07-29T20:44:06;8.70;;;8.00;;
13799;SDS011;6971;50.028;9.258;2022-07-29T20:49:07;9.03;;;8.20;;
13799;SDS011;6971;50.028;9.258;2022-07-29T20:54:08;9.40;;;8.50;;
13799;SDS011;6971;50.028;9.258;2022-07-29T20:59:09;9.37;;;8.50;;
13799;SDS011;6971;50.028;9.258;2022-07-29T21:04:10;9.13;;;8.23;;
13799;SDS011;6971;50.028;9.258;2022-07-29T21:09:11;9.10;;;7.23;;
13799;SDS011;6971;50.028;9.258;2022-07-29T21:14:12;8.80;;;8.00;;
13799;SDS011;6971;50.028;9.258;2022-07-29T21:19:25;7.83;;;7.03;;
13799;SDS011;6971;50.028;9.258;2022-07-29T21:24:26;9.13;;;8.33;;
13799;SDS011;6971;50.028;9.258;2022-07-29T21:29:27;7.67;;;6.73;;
13799;SDS011;6971;50.028;9.258;2022-07-29T21:34:29;8.00;;;7.23;;
13799;SDS011;6971;50.028;9.258;2022-07-29T21:39:30;8.17;;;7.50;;
13799;SDS011;6971;50.028;9.258;2022-07-29T21:44:30;8.83;;;7.30;;
13799;SDS011;6971;50.028;9.258;2022-07-29T21:54:41;12.63;;;8.20;;
13799;SDS011;6971;50.028;9.258;2022-07-29T21:59:43;8.77;;;7.87;;
13799;SDS011;6971;50.028;9.258;2022-07-29T22:04:44;10.03;;;8.93;;
13799;SDS011;6971;50.028;9.258;2022-07-29T22:09:45;9.30;;;8.50;;
13799;SDS011;6971;50.028;9.258;2022-07-29T22:14:46;9.07;;;8.10;;
13799;SDS011;6971;50.028;9.258;2022-07-29T22:19:47;9.57;;;8.53;;
13799;SDS011;6971;50.028;9.258;2022-07-29T22:24:48;9.50;;;8.07;;
13799;SDS011;6971;50.028;9.258;2022-07-29T22:29:48;8.93;;;8.03;;
13799;SDS011;6971;50.028;9.258;2022-07-29T22:34:49;8.60;;;7.90;;
13799;SDS011;6971;50.028;9.258;2022-07-29T22:39:50;9.27;;;8.23;;
13799;SDS011;6971;50.028;9.258;2022-07-29T22:44:51;10.00;;;9.10;;
13799;SDS011;6971;50.028;9.258;2022-07-29T22:49:52;10.33;;;9.43;;
13799;SDS011;6971;50.028;9.258;2022-07-29T22:54:53;9.53;;;8.63;;
13799;SDS011;6971;50.028;9.258;2022-07-29T22:59:54;10.33;;;8.53;;
13799;SDS011;6971;50.028;9.258;2022-07-29T23:04:55;9.07;;;8.27;;
13799;SDS011;6971;50.028;9.258;2022-07-29T23:09:56;8.83;;;7.97;;
13799;SDS011;6971;50.028;9.258;2022-07-29T23:14:58;9.43;;;8.63;;
13799;SDS011;6971;50.028;9.258;2022-07-29T23:19:58;9.33;;;8.37;;
13799;SDS011;6971;50.028;9.258;2022-07-29T23:24:59;9.33;;;8.43;;
13799;SDS011;6971;50.028;9.258;2022-07-29T23:30:00;9.80;;;9.00;;
13799;SDS011;6971;50.028;9.258;2022-07-29T23:35:01;9.50;;;8.67;;
13799;SDS011;6971;50.028;9.258;2022-07-29T23:40:04;9.60;;;8.83;;
13799;SDS011;6971;50.028;9.258;2022-07-29T23:45:06;11.60;;;8.43;;
13799;SDS011;6971;50.028;9.258;2022-07-29T23:50:07;11.60;;;8.07;;
13799;SDS011;6971;50.028;9.258;2022-07-29T23:55:11;8.87;;;7.97;;
